sensor_id;sensor_type;location;lat;lon;timestamp;pressure;altitude;pressure_sealevel;temperature;humidity
18918;BME280;9591;52.742;13.650;2023-01-15T00:02:49;99252.09;;;8.01;100.00
18918;BME280;9591;52.742;13.650;2023-01-15T00:05:36;99229.34;;;7.99;100.00
18918;BME280;9591;52.742;13.650;2023-01-15T00:08:23;99244.84;;;8.06;100.00
18918;BME280;9591;52.742;13.650;2023-01-15T00:11:11;99245.28;;;8.16;100.00
18918;BME280;9591;52.742;13.650;2023-01-15T00:13:58;99237.56;;;8.11;100.00
18918;BME280;9591;52.742;13.650;2023-01-15T00:16:44;99232.09;;;8.16;100.00
18918;BME280;9591;52.742;13.650;2023-01-15T00:19:31;99225.75;;;8.20;100.00
18918;BME280;9591;52.742;13.650;2023-01-15T00:22:18;99230.16;;;8.19;100.00
18918;BME280;9591;52.742;13.650;2023-01-15T00:25:06;99226.81;;;8.16;100.00
18918;BME280;9591;52.742;13.650;2023-01-15T00:28:13;99236.94;;;8.25;100.00
18918;BME280;9591;52.742;13.650;2023-01-15T00:31:03;99237.66;;;8.29;100.00
18918;BME280;9591;52.742;13.650;2023-01-15T00:33:50;99122.06;;;7.63;100.00
18918;BME280;9591;52.742;13.650;2023-01-15T00:36:36;99231.19;;;8.36;100.00
18918;BME280;9591;52.742;13.650;2023-01-15T00:39:24;99227.72;;;8.35;100.00
18918;BME280;9591;52.742;13.650;2023-01-15T00:42:12;99208.72;;;8.27;100.00
18918;BME280;9591;52.742;13.650;2023-01-15T00:45:00;99207.78;;;8.28;100.00
18918;BME280;9591;52.742;13.650;2023-01-15T00:47:55;99201.91;;;8.42;100.00
18918;BME280;9591;52.742;13.650;2023-01-15T00:50:45;99196.69;;;8.40;100.00
18918;BME280;9591;52.742;13.650;2023-01-15T00:53:35;99186.78;;;8.45;100.00
18918;BME280;9591;52.742;13.650;2023-01-15T00:56:22;99185.84;;;8.46;100.00
18918;BME280;9591;52.742;13.650;2023-01-15T00:59:16;99200.75;;;8.47;100.00
18918;BME280;9591;52.742;13.650;2023-01-15T01:02:04;99211.16;;;8.50;100.00
18918;BME280;9591;52.742;13.650;2023-01-15T01:04:52;99197.25;;;8.47;100.00
18918;BME280;9591;52.742;13.650;2023-01-15T01:07:39;99211.50;;;8.62;100.00
18918;BME280;9591;52.742;13.650;2023-01-15T01:10:26;99205.50;;;8.58;100.00
18918;BME280;9591;52.742;13.650;2023-01-15T01:13:13;99197.53;;;8.60;100.00
18918;BME280;9591;52.742;13.650;2023-01-15T01:16:01;99191.63;;;8.54;100.00
18918;BME280;9591;52.742;13.650;2023-01-15T01:18:51;99178.97;;;8.61;100.00
18918;BME280;9591;52.742;13.650;2023-01-15T01:21:39;99171.06;;;8.61;100.00
18918;BME280;9591;52.742;13.650;2023-01-15T01:24:26;99184.19;;;8.63;100.00
18918;BME280;9591;52.742;13.650;2023-01-15T01:27:13;99178.56;;;8.69;100.00
18918;BME280;9591;52.742;13.650;2023-01-15T01:30:01;99185.41;;;8.73;100.00
18918;BME280;9591;52.742;13.650;2023-01-15T01:32:50;99184.56;;;8.72;100.00
18918;BME280;9591;52.742;13.650;2023-01-15T01:35:38;99193.19;;;8.76;100.00
18918;BME280;9591;52.742;13.650;2023-01-15T01:38:25;99190.47;;;8.77;100.00
18918;BME280;9591;52.742;13.650;2023-01-15T01:41:12;99186.66;;;8.83;100.00
18918;BME280;9591;52.742;13.650;2023-01-15T01:44:01;99189.47;;;8.80;100.00
18918;BME280;9591;52.742;13.650;2023-01-15T01:46:47;99176.34;;;8.78;100.00
18918;BME280;9591;52.742;13.650;2023-01-15T01:49:35;99174.25;;;8.85;100.00
18918;BME280;9591;52.742;13.650;2023-01-15T01:52:26;99148.78;;;8.84;100.00
18918;BME280;9591;52.742;13.650;2023-01-15T01:55:18;99147.84;;;8.85;100.00
18918;BME280;9591;52.742;13.650;2023-01-15T01:58:08;99162.69;;;8.87;100.00
18918;BME280;9591;52.742;13.650;2023-01-15T02:01:00;99163.69;;;8.85;100.00
18918;BME280;9591;52.742;13.650;2023-01-15T02:03:53;99168.81;;;8.88;100.00
18918;BME280;9591;52.742;13.650;2023-01-15T02:06:42;99176.59;;;8.91;100.00
18918;BME280;9591;52.742;13.650;2023-01-15T02:09:32;99167.88;;;8.89;100.00
18918;BME280;9591;52.742;13.650;2023-01-15T02:12:24;99180.88;;;8.94;100.00
18918;BME280;9591;52.742;13.650;2023-01-15T02:15:18;99173.72;;;8.96;100.00
18918;BME280;9591;52.742;13.650;2023-01-15T02:18:13;99167.50;;;8.97;100.00
18918;BME280;9591;52.742;13.650;2023-01-15T02:21:08;99173.03;;;8.92;100.00
18918;BME280;9591;52.742;13.650;2023-01-15T02:24:08;99169.97;;;8.82;100.00
18918;BME280;9591;52.742;13.650;2023-01-15T02:27:06;99171.38;;;8.72;100.00
18918;BME280;9591;52.742;13.650;2023-01-15T02:30:01;99172.47;;;8.85;100.00
18918;BME280;9591;52.742;13.650;2023-01-15T02:33:04;99170.22;;;8.78;100.00
18918;BME280;9591;52.742;13.650;2023-01-15T02:35:56;99163.06;;;8.80;100.00
18918;BME280;9591;52.742;13.650;2023-01-15T02:38:52;99178.59;;;8.86;100.00
18918;BME280;9591;52.742;13.650;2023-01-15T02:41:46;99187.59;;;8.82;100.00
18918;BME280;9591;52.742;13.650;2023-01-15T02:44:41;99167.78;;;8.73;100.00
18918;BME280;9591;52.742;13.650;2023-01-15T02:47:33;99125.50;;;8.58;100.00
18918;BME280;9591;52.742;13.650;2023-01-15T02:50:25;99162.44;;;8.75;100.00
18918;BME280;9591;52.742;13.650;2023-01-15T02:53:16;99156.47;;;8.71;100.00
18918;BME280;9591;52.742;13.650;2023-01-15T02:56:07;99157.47;;;8.69;100.00
18918;BME280;9591;52.742;13.650;2023-01-15T02:59:05;99157.53;;;8.67;100.00
18918;BME280;9591;52.742;13.650;2023-01-15T03:01:56;99145.97;;;8.70;100.00
18918;BME280;9591;52.742;13.650;2023-01-15T03:04:48;99154.66;;;8.72;100.00
18918;BME280;9591;52.742;13.650;2023-01-15T03:07:42;99148.16;;;8.62;100.00
18918;BME280;9591;52.742;13.650;2023-01-15T03:10:38;99141.69;;;8.67;100.00
18918;BME280;9591;52.742;13.650;2023-01-15T03:13:33;99147.09;;;8.66;100.00
18918;BME280;9591;52.742;13.650;2023-01-15T03:16:28;99149.53;;;8.69;100.00
18918;BME280;9591;52.742;13.650;2023-01-15T03:19:28;99145.97;;;8.70;100.00
18918;BME280;9591;52.742;13.650;2023-01-15T03:22:25;99142.66;;;8.66;100.00
18918;BME280;9591;52.742;13.650;2023-01-15T03:25:16;99139.53;;;8.75;100.00
18918;BME280;9591;52.742;13.650;2023-01-15T03:28:09;99140.38;;;8.76;100.00
18918;BME280;9591;52.742;13.650;2023-01-15T03:30:57;99128.28;;;8.72;100.00
18918;BME280;9591;52.742;13.650;2023-01-15T03:33:45;99139.00;;;8.69;100.00
18918;BME280;9591;52.742;13.650;2023-01-15T03:36:38;99137.97;;;8.71;100.00
18918;BME280;9591;52.742;13.650;2023-01-15T03:39:25;99127.41;;;8.71;100.00
18918;BME280;9591;52.742;13.650;2023-01-15T03:42:44;99135.34;;;8.71;100.00
18918;BME280;9591;52.742;13.650;2023-01-15T03:45:36;99137.13;;;8.71;100.00
18918;BME280;9591;52.742;13.650;2023-01-15T03:48:27;99132.63;;;8.73;100.00
18918;BME280;9591;52.742;13.650;2023-01-15T03:51:24;99135.91;;;8.78;100.00
18918;BME280;9591;52.742;13.650;2023-01-15T03:54:17;99133.56;;;8.72;100.00
18918;BME280;9591;52.742;13.650;2023-01-15T03:57:13;99148.16;;;8.79;100.00
18918;BME280;9591;52.742;13.650;2023-01-15T04:00:09;99157.63;;;8.83;100.00
18918;BME280;9591;52.742;13.650;2023-01-15T04:03:07;99184.56;;;8.72;100.00
18918;BME280;9591;52.742;13.650;2023-01-15T04:05:56;99185.25;;;8.59;100.00
18918;BME280;9591;52.742;13.650;2023-01-15T04:08:46;99194.94;;;8.20;100.00
18918;BME280;9591;52.742;13.650;2023-01-15T04:11:36;99203.44;;;8.08;100.00
18918;BME280;9591;52.742;13.650;2023-01-15T04:14:24;99208.69;;;7.89;100.00
18918;BME280;9591;52.742;13.650;2023-01-15T04:17:12;99216.31;;;7.77;100.00
18918;BME280;9591;52.742;13.650;2023-01-15T04:19:59;99215.81;;;7.69;100.00
18918;BME280;9591;52.742;13.650;2023-01-15T04:22:47;99223.84;;;7.66;100.00
18918;BME280;9591;52.742;13.650;2023-01-15T04:25:34;99229.44;;;7.58;100.00
18918;BME280;9591;52.742;13.650;2023-01-15T04:28:23;99229.72;;;7.52;100.00
18918;BME280;9591;52.742;13.650;2023-01-15T04:31:09;99235.78;;;7.54;100.00
18918;BME280;9591;52.742;13.650;2023-01-15T04:33:56;99255.91;;;7.55;100.00
18918;BME280;9591;52.742;13.650;2023-01-15T04:36:43;99254.66;;;7.43;100.00
18918;BME280;9591;52.742;13.650;2023-01-15T04:39:32;99253.09;;;7.39;100.00
18918;BME280;9591;52.742;13.650;2023-01-15T04:42:19;99269.09;;;7.35;100.00
18918;BME280;9591;52.742;13.650;2023-01-15T04:45:24;99259.06;;;7.22;100.00
18918;BME280;9591;52.742;13.650;2023-01-15T04:48:11;99270.75;;;7.15;100.00
18918;BME280;9591;52.742;13.650;2023-01-15T04:51:01;99277.38;;;7.04;100.00
18918;BME280;9591;52.742;13.650;2023-01-15T04:53:48;99292.03;;;6.89;100.00
18918;BME280;9591;52.742;13.650;2023-01-15T04:56:37;99293.31;;;6.79;100.00
18918;BME280;9591;52.742;13.650;2023-01-15T04:59:26;99303.66;;;6.62;100.00
18918;BME280;9591;52.742;13.650;2023-01-15T05:02:14;99305.94;;;6.47;100.00
18918;BME280;9591;52.742;13.650;2023-01-15T05:05:01;99307.44;;;6.31;100.00
18918;BME280;9591;52.742;13.650;2023-01-15T05:07:47;99301.13;;;6.12;100.00
18918;BME280;9591;52.742;13.650;2023-01-15T05:10:34;99303.75;;;6.12;100.00
18918;BME280;9591;52.742;13.650;2023-01-15T05:13:21;99304.88;;;6.06;100.00
18918;BME280;9591;52.742;13.650;2023-01-15T05:16:10;99299.91;;;5.99;100.00
18918;BME280;9591;52.742;13.650;2023-01-15T05:19:00;99306.22;;;5.93;100.00
18918;BME280;9591;52.742;13.650;2023-01-15T05:21:47;99308.00;;;5.93;100.00
18918;BME280;9591;52.742;13.650;2023-01-15T05:24:35;99318.06;;;6.05;100.00
18918;BME280;9591;52.742;13.650;2023-01-15T05:27:22;99318.25;;;6.00;100.00
18918;BME280;9591;52.742;13.650;2023-01-15T05:30:10;99318.84;;;5.82;100.00
18918;BME280;9591;52.742;13.650;2023-01-15T05:32:58;99318.00;;;5.81;100.00
18918;BME280;9591;52.742;13.650;2023-01-15T05:35:46;99308.13;;;5.63;100.00
18918;BME280;9591;52.742;13.650;2023-01-15T05:38:33;99314.03;;;5.70;100.00
18918;BME280;9591;52.742;13.650;2023-01-15T05:41:22;99316.00;;;5.63;100.00
18918;BME280;9591;52.742;13.650;2023-01-15T05:44:28;99325.97;;;5.53;100.00
18918;BME280;9591;52.742;13.650;2023-01-15T05:47:15;99313.91;;;5.48;100.00
18918;BME280;9591;52.742;13.650;2023-01-15T05:50:01;99319.56;;;5.36;100.00
18918;BME280;9591;52.742;13.650;2023-01-15T05:52:50;99327.06;;;5.46;100.00
18918;BME280;9591;52.742;13.650;2023-01-15T05:55:36;99333.25;;;5.45;100.00
18918;BME280;9591;52.742;13.650;2023-01-15T05:58:23;99328.47;;;5.56;100.00
18918;BME280;9591;52.742;13.650;2023-01-15T06:01:10;99319.84;;;5.53;100.00
18918;BME280;9591;52.742;13.650;2023-01-15T06:03:58;99321.53;;;5.55;100.00
18918;BME280;9591;52.742;13.650;2023-01-15T06:06:45;99324.59;;;5.42;100.00
18918;BME280;9591;52.742;13.650;2023-01-15T06:09:33;99324.72;;;5.39;100.00
18918;BME280;9591;52.742;13.650;2023-01-15T06:12:20;99323.09;;;5.35;100.00
18918;BME280;9591;52.742;13.650;2023-01-15T06:15:07;99318.75;;;5.34;100.00
18918;BME280;9591;52.742;13.650;2023-01-15T06:17:54;99310.34;;;5.49;100.00
18918;BME280;9591;52.742;13.650;2023-01-15T06:20:41;99308.34;;;5.31;100.00
18918;BME280;9591;52.742;13.650;2023-01-15T06:23:28;99296.47;;;5.45;100.00
18918;BME280;9591;52.742;13.650;2023-01-15T06:26:17;99298.75;;;5.30;100.00
18918;BME280;9591;52.742;13.650;2023-01-15T06:29:03;99301.59;;;5.23;100.00
18918;BME280;9591;52.742;13.650;2023-01-15T06:31:50;99299.06;;;5.20;100.00
18918;BME280;9591;52.742;13.650;2023-01-15T06:34:37;99305.00;;;5.25;100.00
18918;BME280;9591;52.742;13.650;2023-01-15T06:37:27;99308.56;;;5.24;100.00
18918;BME280;9591;52.742;13.650;2023-01-15T06:40:14;99307.78;;;5.47;100.00
18918;BME280;9591;52.742;13.650;2023-01-15T06:43:02;99303.81;;;5.36;100.00
18918;BME280;9591;52.742;13.650;2023-01-15T06:46:07;99304.81;;;5.32;100.00
18918;BME280;9591;52.742;13.650;2023-01-15T06:49:23;99319.75;;;5.30;100.00
18918;BME280;9591;52.742;13.650;2023-01-15T06:52:09;99321.31;;;5.35;100.00
18918;BME280;9591;52.742;13.650;2023-01-15T06:54:56;99315.50;;;5.25;100.00
18918;BME280;9591;52.742;13.650;2023-01-15T06:57:44;99305.94;;;5.24;100.00
18918;BME280;9591;52.742;13.650;2023-01-15T07:00:32;99305.53;;;5.37;100.00
18918;BME280;9591;52.742;13.650;2023-01-15T07:03:18;99328.34;;;5.35;100.00
18918;BME280;9591;52.742;13.650;2023-01-15T07:06:06;99331.56;;;5.43;100.00
18918;BME280;9591;52.742;13.650;2023-01-15T07:08:53;99333.38;;;5.41;100.00
18918;BME280;9591;52.742;13.650;2023-01-15T07:11:40;99332.72;;;5.34;100.00
18918;BME280;9591;52.742;13.650;2023-01-15T07:14:34;99336.41;;;5.28;100.00
18918;BME280;9591;52.742;13.650;2023-01-15T07:17:22;99341.22;;;5.42;100.00
18918;BME280;9591;52.742;13.650;2023-01-15T07:20:10;99349.34;;;5.35;100.00
18918;BME280;9591;52.742;13.650;2023-01-15T07:22:57;99342.31;;;5.35;100.00
18918;BME280;9591;52.742;13.650;2023-01-15T07:25:44;99343.78;;;5.44;100.00
18918;BME280;9591;52.742;13.650;2023-01-15T07:28:31;99340.66;;;5.33;100.00
18918;BME280;9591;52.742;13.650;2023-01-15T07:31:17;99341.47;;;5.35;100.00
18918;BME280;9591;52.742;13.650;2023-01-15T07:34:05;99322.69;;;5.20;100.00
18918;BME280;9591;52.742;13.650;2023-01-15T07:36:52;99334.19;;;5.43;100.00
18918;BME280;9591;52.742;13.650;2023-01-15T07:39:39;99329.97;;;5.39;100.00
18918;BME280;9591;52.742;13.650;2023-01-15T07:42:26;99319.84;;;5.26;100.00
18918;BME280;9591;52.742;13.650;2023-01-15T07:45:30;99336.16;;;5.36;100.00
18918;BME280;9591;52.742;13.650;2023-01-15T07:48:35;99345.97;;;5.31;100.00
18918;BME280;9591;52.742;13.650;2023-01-15T07:51:40;99342.97;;;5.42;100.00
18918;BME280;9591;52.742;13.650;2023-01-15T07:54:27;99343.63;;;5.48;100.00
18918;BME280;9591;52.742;13.650;2023-01-15T07:57:17;99346.41;;;5.44;100.00
18918;BME280;9591;52.742;13.650;2023-01-15T08:00:06;99351.72;;;5.42;100.00
18918;BME280;9591;52.742;13.650;2023-01-15T08:02:56;99361.56;;;5.36;100.00
18918;BME280;9591;52.742;13.650;2023-01-15T08:05:43;99365.09;;;5.35;100.00
18918;BME280;9591;52.742;13.650;2023-01-15T08:08:31;99363.94;;;5.43;100.00
18918;BME280;9591;52.742;13.650;2023-01-15T08:11:18;99338.28;;;5.25;100.00
18918;BME280;9591;52.742;13.650;2023-01-15T08:14:22;99355.44;;;5.35;100.00
18918;BME280;9591;52.742;13.650;2023-01-15T08:17:26;99364.13;;;5.37;100.00
18918;BME280;9591;52.742;13.650;2023-01-15T08:20:14;99372.88;;;5.38;100.00
18918;BME280;9591;52.742;13.650;2023-01-15T08:23:01;99358.94;;;5.36;100.00
18918;BME280;9591;52.742;13.650;2023-01-15T08:25:49;99354.19;;;5.47;100.00
18918;BME280;9591;52.742;13.650;2023-01-15T08:28:36;99343.59;;;5.50;100.00
18918;BME280;9591;52.742;13.650;2023-01-15T08:31:23;99341.97;;;5.46;100.00
18918;BME280;9591;52.742;13.650;2023-01-15T08:34:10;99342.94;;;5.43;100.00
18918;BME280;9591;52.742;13.650;2023-01-15T08:36:56;99344.13;;;5.59;100.00
18918;BME280;9591;52.742;13.650;2023-01-15T08:39:44;99344.25;;;5.56;100.00
18918;BME280;9591;52.742;13.650;2023-01-15T08:42:33;99351.75;;;5.67;100.00
18918;BME280;9591;52.742;13.650;2023-01-15T08:45:20;99366.50;;;5.71;100.00
18918;BME280;9591;52.742;13.650;2023-01-15T08:48:06;99368.28;;;5.71;100.00
18918;BME280;9591;52.742;13.650;2023-01-15T08:50:53;99362.88;;;5.75;100.00
18918;BME280;9591;52.742;13.650;2023-01-15T08:53:40;99362.00;;;5.75;100.00
18918;BME280;9591;52.742;13.650;2023-01-15T08:56:26;99361.97;;;5.76;100.00
18918;BME280;9591;52.742;13.650;2023-01-15T08:59:15;99371.66;;;5.74;100.00
18918;BME280;9591;52.742;13.650;2023-01-15T09:02:02;99381.25;;;5.75;100.00
18918;BME280;9591;52.742;13.650;2023-01-15T09:04:49;99368.81;;;5.80;100.00
18918;BME280;9591;52.742;13.650;2023-01-15T09:07:36;99365.06;;;5.87;100.00
18918;BME280;9591;52.742;13.650;2023-01-15T09:10:24;99366.66;;;5.93;100.00
18918;BME280;9591;52.742;13.650;2023-01-15T09:13:10;99367.69;;;5.89;100.00
18918;BME280;9591;52.742;13.650;2023-01-15T09:15:59;99380.56;;;5.97;100.00
18918;BME280;9591;52.742;13.650;2023-01-15T09:18:47;99377.81;;;6.00;100.00
18918;BME280;9591;52.742;13.650;2023-01-15T09:21:34;99389.13;;;6.02;100.00
18918;BME280;9591;52.742;13.650;2023-01-15T09:24:21;99385.50;;;6.06;100.00
18918;BME280;9591;52.742;13.650;2023-01-15T09:27:10;99393.66;;;5.98;100.00
18918;BME280;9591;52.742;13.650;2023-01-15T09:29:56;99393.50;;;6.03;100.00
18918;BME280;9591;52.742;13.650;2023-01-15T09:32:44;99393.72;;;6.20;100.00
18918;BME280;9591;52.742;13.650;2023-01-15T09:35:31;99396.28;;;6.21;100.00
18918;BME280;9591;52.742;13.650;2023-01-15T09:38:20;99390.19;;;6.21;100.00
18918;BME280;9591;52.742;13.650;2023-01-15T09:41:10;99394.41;;;6.25;100.00
18918;BME280;9591;52.742;13.650;2023-01-15T09:44:29;99408.91;;;6.37;100.00
18918;BME280;9591;52.742;13.650;2023-01-15T09:47:24;99401.19;;;6.32;100.00
18918;BME280;9591;52.742;13.650;2023-01-15T09:50:22;99412.50;;;6.34;100.00
18918;BME280;9591;52.742;13.650;2023-01-15T09:53:27;99407.13;;;6.37;100.00
18918;BME280;9591;52.742;13.650;2023-01-15T09:56:20;99411.47;;;6.38;100.00
18918;BME280;9591;52.742;13.650;2023-01-15T09:59:18;99422.84;;;6.39;100.00
18918;BME280;9591;52.742;13.650;2023-01-15T10:02:14;99417.25;;;6.48;100.00
18918;BME280;9591;52.742;13.650;2023-01-15T10:05:09;99422.38;;;6.52;100.00
18918;BME280;9591;52.742;13.650;2023-01-15T10:08:02;99410.06;;;6.53;100.00
18918;BME280;9591;52.742;13.650;2023-01-15T10:10:54;99370.31;;;6.37;100.00
18918;BME280;9591;52.742;13.650;2023-01-15T10:13:44;99417.56;;;6.64;100.00
18918;BME280;9591;52.742;13.650;2023-01-15T10:16:32;99396.91;;;6.53;100.00
18918;BME280;9591;52.742;13.650;2023-01-15T10:19:19;99397.78;;;6.53;100.00
18918;BME280;9591;52.742;13.650;2023-01-15T10:22:09;99396.75;;;6.57;100.00
18918;BME280;9591;52.742;13.650;2023-01-15T10:25:01;99394.97;;;6.58;100.00
18918;BME280;9591;52.742;13.650;2023-01-15T10:27:51;99380.06;;;6.58;100.00
18918;BME280;9591;52.742;13.650;2023-01-15T10:30:42;99393.94;;;6.62;100.00
18918;BME280;9591;52.742;13.650;2023-01-15T10:33:42;99392.63;;;6.74;100.00
18918;BME280;9591;52.742;13.650;2023-01-15T10:36:38;99382.97;;;6.74;100.00
18918;BME280;9591;52.742;13.650;2023-01-15T10:39:33;99376.03;;;6.72;100.00
18918;BME280;9591;52.742;13.650;2023-01-15T10:42:31;99378.56;;;6.75;100.00
18918;BME280;9591;52.742;13.650;2023-01-15T10:45:27;99385.38;;;6.80;100.00
18918;BME280;9591;52.742;13.650;2023-01-15T10:48:23;99388.31;;;6.95;100.00
18918;BME280;9591;52.742;13.650;2023-01-15T10:51:14;99390.75;;;6.99;100.00
18918;BME280;9591;52.742;13.650;2023-01-15T10:54:04;99387.22;;;7.00;100.00
18918;BME280;9591;52.742;13.650;2023-01-15T10:56:56;99390.88;;;6.96;100.00
18918;BME280;9591;52.742;13.650;2023-01-15T10:59:50;99386.00;;;6.87;100.00
18918;BME280;9591;52.742;13.650;2023-01-15T11:02:43;99390.41;;;6.86;100.00
18918;BME280;9591;52.742;13.650;2023-01-15T11:05:31;99386.78;;;6.89;100.00
18918;BME280;9591;52.742;13.650;2023-01-15T11:08:21;99390.81;;;6.98;100.00
18918;BME280;9591;52.742;13.650;2023-01-15T11:11:34;99393.44;;;6.98;100.00
18918;BME280;9591;52.742;13.650;2023-01-15T11:14:48;99406.38;;;7.04;100.00
18918;BME280;9591;52.742;13.650;2023-01-15T11:17:54;99409.63;;;7.10;100.00
18918;BME280;9591;52.742;13.650;2023-01-15T11:20:59;99397.09;;;7.17;100.00
18918;BME280;9591;52.742;13.650;2023-01-15T11:23:47;99405.91;;;7.16;100.00
18918;BME280;9591;52.742;13.650;2023-01-15T11:26:34;99403.69;;;7.05;100.00
18918;BME280;9591;52.742;13.650;2023-01-15T11:29:29;99399.34;;;7.04;100.00
18918;BME280;9591;52.742;13.650;2023-01-15T11:32:27;99397.63;;;7.03;100.00
18918;BME280;9591;52.742;13.650;2023-01-15T11:35:16;99392.91;;;7.11;100.00
18918;BME280;9591;52.742;13.650;2023-01-15T11:38:06;99406.44;;;7.02;100.00
18918;BME280;9591;52.742;13.650;2023-01-15T11:40:54;99334.28;;;6.63;100.00
18918;BME280;9591;52.742;13.650;2023-01-15T11:43:52;99409.13;;;7.01;100.00
18918;BME280;9591;52.742;13.650;2023-01-15T11:46:58;99399.44;;;7.01;100.00
18918;BME280;9591;52.742;13.650;2023-01-15T11:50:15;99386.28;;;7.01;100.00
18918;BME280;9591;52.742;13.650;2023-01-15T11:53:22;99392.91;;;7.11;100.00
18918;BME280;9591;52.742;13.650;2023-01-15T11:56:10;99385.13;;;7.08;100.00
18918;BME280;9591;52.742;13.650;2023-01-15T11:59:03;99377.13;;;7.11;100.00
18918;BME280;9591;52.742;13.650;2023-01-15T12:01:56;99377.84;;;7.15;100.00
18918;BME280;9591;52.742;13.650;2023-01-15T12:04:48;99371.78;;;7.13;100.00
18918;BME280;9591;52.742;13.650;2023-01-15T12:07:40;99390.50;;;7.05;100.00
18918;BME280;9591;52.742;13.650;2023-01-15T12:10:29;99393.94;;;7.07;100.00
18918;BME280;9591;52.742;13.650;2023-01-15T12:13:41;99388.50;;;7.12;100.00
18918;BME280;9591;52.742;13.650;2023-01-15T12:16:33;99391.00;;;7.15;100.00
18918;BME280;9591;52.742;13.650;2023-01-15T12:19:29;99375.59;;;7.06;100.00
18918;BME280;9591;52.742;13.650;2023-01-15T12:22:32;99377.97;;;7.12;100.00
18918;BME280;9591;52.742;13.650;2023-01-15T12:25:33;99385.94;;;7.10;100.00
18918;BME280;9591;52.742;13.650;2023-01-15T12:28:25;99381.66;;;7.08;100.00
18918;BME280;9591;52.742;13.650;2023-01-15T12:31:17;99382.13;;;7.17;100.00
18918;BME280;9591;52.742;13.650;2023-01-15T12:34:16;99394.63;;;7.12;100.00
18918;BME280;9591;52.742;13.650;2023-01-15T12:37:09;99382.63;;;7.05;100.00
18918;BME280;9591;52.742;13.650;2023-01-15T12:40:14;99374.47;;;7.11;100.00
18918;BME280;9591;52.742;13.650;2023-01-15T12:43:12;99375.47;;;7.09;100.00
18918;BME280;9591;52.742;13.650;2023-01-15T12:46:23;99368.47;;;7.08;100.00
18918;BME280;9591;52.742;13.650;2023-01-15T12:49:21;99365.66;;;7.12;100.00
18918;BME280;9591;52.742;13.650;2023-01-15T12:52:15;99358.13;;;7.25;100.00
18918;BME280;9591;52.742;13.650;2023-01-15T12:55:12;99373.13;;;7.23;100.00
18918;BME280;9591;52.742;13.650;2023-01-15T12:58:01;99360.91;;;7.22;100.00
18918;BME280;9591;52.742;13.650;2023-01-15T13:00:57;99373.31;;;7.18;100.00
18918;BME280;9591;52.742;13.650;2023-01-15T13:03:57;99363.22;;;7.08;100.00
18918;BME280;9591;52.742;13.650;2023-01-15T13:06:47;99373.69;;;7.09;100.00
18918;BME280;9591;52.742;13.650;2023-01-15T13:09:43;99373.50;;;6.92;100.00
18918;BME280;9591;52.742;13.650;2023-01-15T13:12:33;99375.88;;;6.98;100.00
18918;BME280;9591;52.742;13.650;2023-01-15T13:15:24;99381.16;;;6.98;100.00
18918;BME280;9591;52.742;13.650;2023-01-15T13:18:20;99367.84;;;7.01;100.00
18918;BME280;9591;52.742;13.650;2023-01-15T13:21:11;99376.50;;;7.05;100.00
18918;BME280;9591;52.742;13.650;2023-01-15T13:24:18;99385.94;;;7.10;100.00
18918;BME280;9591;52.742;13.650;2023-01-15T13:27:20;99368.34;;;7.11;100.00
18918;BME280;9591;52.742;13.650;2023-01-15T13:30:25;99371.06;;;7.09;100.00
18918;BME280;9591;52.742;13.650;2023-01-15T13:33:23;99366.16;;;7.00;100.00
18918;BME280;9591;52.742;13.650;2023-01-15T13:36:16;99370.72;;;6.95;100.00
18918;BME280;9591;52.742;13.650;2023-01-15T13:39:04;99369.63;;;6.79;100.00
18918;BME280;9591;52.742;13.650;2023-01-15T13:41:53;99363.22;;;6.86;100.00
18918;BME280;9591;52.742;13.650;2023-01-15T13:45:00;99359.22;;;6.76;100.00
18918;BME280;9591;52.742;13.650;2023-01-15T13:47:49;99371.53;;;6.75;100.00
18918;BME280;9591;52.742;13.650;2023-01-15T13:50:41;99361.13;;;6.72;100.00
18918;BME280;9591;52.742;13.650;2023-01-15T13:53:38;99368.56;;;6.61;100.00
18918;BME280;9591;52.742;13.650;2023-01-15T13:56:26;99362.66;;;6.54;100.00
18918;BME280;9591;52.742;13.650;2023-01-15T13:59:37;99363.81;;;6.47;100.00
18918;BME280;9591;52.742;13.650;2023-01-15T14:02:27;99374.38;;;6.46;100.00
18918;BME280;9591;52.742;13.650;2023-01-15T14:05:26;99400.50;;;6.50;100.00
18918;BME280;9591;52.742;13.650;2023-01-15T14:08:15;99401.91;;;6.61;100.00
18918;BME280;9591;52.742;13.650;2023-01-15T14:11:02;99401.78;;;6.64;100.00
18918;BME280;9591;52.742;13.650;2023-01-15T14:14:12;99406.75;;;6.71;100.00
18918;BME280;9591;52.742;13.650;2023-01-15T14:17:15;99401.44;;;6.73;100.00
18918;BME280;9591;52.742;13.650;2023-01-15T14:20:25;99407.28;;;6.81;100.00
18918;BME280;9591;52.742;13.650;2023-01-15T14:23:36;99416.09;;;6.80;100.00
18918;BME280;9591;52.742;13.650;2023-01-15T14:26:32;99416.44;;;6.71;100.00
18918;BME280;9591;52.742;13.650;2023-01-15T14:29:50;99432.22;;;6.71;100.00
18918;BME280;9591;52.742;13.650;2023-01-15T14:32:53;99440.16;;;6.69;100.00
18918;BME280;9591;52.742;13.650;2023-01-15T14:35:45;99406.97;;;6.42;100.00
18918;BME280;9591;52.742;13.650;2023-01-15T14:38:35;99439.94;;;6.75;100.00
18918;BME280;9591;52.742;13.650;2023-01-15T14:41:25;99445.47;;;6.68;100.00
18918;BME280;9591;52.742;13.650;2023-01-15T14:44:13;99454.94;;;6.73;100.00
18918;BME280;9591;52.742;13.650;2023-01-15T14:47:03;99463.91;;;6.68;100.00
18918;BME280;9591;52.742;13.650;2023-01-15T14:50:00;99458.75;;;6.65;100.00
18918;BME280;9591;52.742;13.650;2023-01-15T14:52:48;99465.09;;;6.59;100.00
18918;BME280;9591;52.742;13.650;2023-01-15T14:55:42;99450.81;;;6.41;100.00
18918;BME280;9591;52.742;13.650;2023-01-15T14:58:44;99467.25;;;6.48;100.00
18918;BME280;9591;52.742;13.650;2023-01-15T15:01:40;99476.00;;;6.48;100.00
18918;BME280;9591;52.742;13.650;2023-01-15T15:04:32;99465.41;;;6.50;100.00
18918;BME280;9591;52.742;13.650;2023-01-15T15:07:24;99466.22;;;6.52;100.00
18918;BME280;9591;52.742;13.650;2023-01-15T15:10:20;99466.28;;;6.50;100.00
18918;BME280;9591;52.742;13.650;2023-01-15T15:13:15;99465.25;;;6.54;100.00